Time;durP1;ratioP1;P1;durP2;ratioP2;P2;SDS_P1;SDS_P2;PMS_P1;PMS_P2;Temp;Humidity;BMP_temperature;BMP_pressure;BME280_temperature;BME280_humidity;BME280_pressure;Samples;Min_cycle;Max_cycle;Signal;HPM_P1;HPM_P2
2023/12/10 00:00:15;;;;;;;;;;;;;;;-0.97;100.00;98393.14;104020;1279;60482;-32
2023/12/10 00:02:41;;;;;;;29.90;13.80;;;;;;;-1.02;100.00;98390.05;104011;1284;60692;-33
2023/12/10 00:05:07;;;;;;;32.60;13.70;;;;;;;-1.00;100.00;98391.26;103956;1284;60483;-33
2023/12/10 00:07:33;;;;;;;33.50;14.40;;;;;;;-1.00;100.00;98390.20;103989;1279;60466;-33
2023/12/10 00:09:59;;;;;;;32.80;14.30;;;;;;;-0.96;100.00;98387.39;103983;1279;60593;-31
2023/12/10 00:12:24;;;;;;;34.80;14.60;;;;;;;-0.96;100.00;98378.83;103978;1279;61016;-32
2023/12/10 00:14:54;;;;;;;34.00;15.60;;;;;;;-0.95;100.00;98377.69;103956;1283;60445;-33
2023/12/10 00:17:21;;;;;;;29.30;12.80;;;;;;;-0.97;100.00;98380.27;103979;1283;60466;-32
2023/12/10 00:19:49;;;;;;;34.90;16.00;;;;;;;-0.95;100.00;98375.04;104154;1279;60438;-33
2023/12/10 00:22:15;;;;;;;43.50;20.20;;;;;;;-0.94;100.00;98371.40;103932;1279;60656;-29
2023/12/10 00:24:42;;;;;;;34.00;15.60;;;;;;;-0.91;100.00;98362.34;103986;1279;60559;-32
2023/12/10 00:27:09;;;;;;;32.40;14.70;;;;;;;-0.90;100.00;98364.18;103978;1279;73023;-32
2023/12/10 00:29:35;;;;;;;31.60;13.50;;;;;;;-0.89;100.00;98359.32;104026;1279;60457;-31
2023/12/10 00:32:00;;;;;;;36.00;16.30;;;;;;;-0.83;100.00;98354.70;103918;1284;60598;-31
2023/12/10 00:34:26;;;;;;;33.60;15.70;;;;;;;-0.86;100.00;98355.91;103931;1279;60578;-33
2023/12/10 00:36:52;;;;;;;31.20;14.90;;;;;;;-0.82;100.00;98359.23;104025;1280;60499;-31
2023/12/10 00:39:18;;;;;;;28.70;13.00;;;;;;;-0.84;100.00;98357.48;103993;1279;60560;-32
2023/12/10 00:41:44;;;;;;;33.50;14.70;;;;;;;-0.82;100.00;98354.38;103874;1283;60579;-33
2023/12/10 00:44:10;;;;;;;40.30;17.30;;;;;;;-0.79;100.00;98353.91;104117;1279;60475;-31
2023/12/10 00:46:35;;;;;;;36.20;16.10;;;;;;;-0.79;100.00;98352.52;104039;1279;60559;-32
2023/12/10 00:49:01;;;;;;;30.50;13.80;;;;;;;-0.78;100.00;98350.70;103989;1279;60549;-33
2023/12/10 00:51:28;;;;;;;29.80;13.60;;;;;;;-0.76;100.00;98342.54;103926;1279;68486;-32
2023/12/10 00:53:54;;;;;;;60.40;22.30;;;;;;;-0.72;100.00;98346.63;104047;1279;72154;-30
2023/12/10 00:56:19;;;;;;;49.80;18.20;;;;;;;-0.67;100.00;98347.34;103917;1284;60501;-30
2023/12/10 00:58:45;;;;;;;38.70;16.00;;;;;;;-0.60;100.00;98349.14;103990;1283;60571;-30
2023/12/10 01:01:11;;;;;;;29.30;13.60;;;;;;;-0.53;100.00;98343.00;104046;1284;60454;-33
2023/12/10 01:03:37;;;;;;;27.10;13.00;;;;;;;-0.43;100.00;98336.92;103926;1284;60574;-33
2023/12/10 01:06:04;;;;;;;26.30;12.10;;;;;;;-0.32;100.00;98339.98;104096;1282;60464;-31
2023/12/10 01:08:30;;;;;;;28.70;13.00;;;;;;;-0.29;100.00;98337.77;103906;1284;60554;-30
2023/12/10 01:10:58;;;;;;;26.10;13.10;;;;;;;-0.22;100.00;98339.48;103972;1279;60536;-31
2023/12/10 01:13:24;;;;;;;21.50;9.90;;;;;;;-0.21;100.00;98336.63;103995;1279;60560;-29
2023/12/10 01:15:51;;;;;;;16.40;8.50;;;;;;;-0.17;100.00;98337.77;103928;1279;60485;-31
2023/12/10 01:18:17;;;;;;;18.00;9.90;;;;;;;-0.17;100.00;98342.75;104107;1283;73106;-32
2023/12/10 01:20:43;;;;;;;17.70;9.30;;;;;;;-0.14;100.00;98342.95;104010;1279;60575;-31
2023/12/10 01:23:09;;;;;;;;;;;;;;;-0.14;100.00;98349.74;103910;1279;60478;-31
2023/12/10 01:25:35;;;;;;;23.60;10.20;;;;;;;-0.16;100.00;98340.12;103913;1279;60577;-31
2023/12/10 01:28:01;;;;;;;25.60;11.50;;;;;;;-0.19;100.00;98332.55;104015;1279;60531;-34
2023/12/10 01:30:27;;;;;;;25.10;11.90;;;;;;;-0.24;100.00;98333.01;103930;1279;60889;-31
2023/12/10 01:32:55;;;;;;;;;;;;;;;-0.26;100.00;98328.34;103896;1279;60620;-31
2023/12/10 01:35:21;;;;;;;28.10;11.60;;;;;;;-0.32;100.00;98325.40;104026;1279;60381;-33
2023/12/10 01:37:47;;;;;;;25.50;11.10;;;;;;;-0.35;100.00;98322.85;104023;1282;60850;-32
2023/12/10 01:40:13;;;;;;;25.60;12.00;;;;;;;-0.33;100.00;98317.05;103997;1279;60465;-29
2023/12/10 01:42:41;;;;;;;28.80;12.50;;;;;;;-0.32;100.00;98318.70;103921;1279;60545;-31
2023/12/10 01:45:08;;;;;;;27.60;13.40;;;;;;;-0.35;100.00;98331.90;103995;1279;60537;-33
2023/12/10 01:47:35;;;;;;;26.80;12.30;;;;;;;-0.35;100.00;98332.18;103942;1279;74234;-34
2023/12/10 01:50:04;;;;;;;26.80;13.50;;;;;;;-0.34;100.00;98329.14;103943;1279;68147;-31
2023/12/10 02:34:49;;;;;;;34.10;15.50;;;;;;;-0.70;100.00;98308.44;103445;1286;614135;-29
2023/12/10 02:37:14;;;;;;;25.30;11.50;;;;;;;-0.66;100.00;98302.42;103600;1286;151467;-30
2023/12/10 02:39:40;;;;;;;30.40;13.80;;;;;;;-0.67;100.00;98300.02;103741;1284;59354;-30
2023/12/10 02:42:06;;;;;;;31.20;14.20;;;;;;;-0.66;100.00;98295.17;104023;1282;59336;-30
2023/12/10 02:44:31;;;;;;;;;;;;;;;-0.65;100.00;98298.58;104064;1282;59355;-32
2023/12/10 02:46:58;;;;;;;27.70;13.00;;;;;;;-0.62;100.00;98303.96;103933;1282;59355;-31
2023/12/10 02:49:24;;;;;;;28.40;13.80;;;;;;;-0.60;100.00;98309.39;103780;1282;59220;-32
2023/12/10 02:51:50;;;;;;;32.40;14.60;;;;;;;-0.55;100.00;98308.17;103774;1282;59349;-32
2023/12/10 02:54:15;;;;;;;;;;;;;;;-0.52;100.00;98313.88;103775;1284;59234;-32
2023/12/10 02:56:42;;;;;;;32.00;13.40;;;;;;;-0.57;100.00;98317.80;103820;1285;59360;-32
2023/12/10 02:59:08;;;;;;;31.40;13.60;;;;;;;-0.55;100.00;98311.52;103932;1282;68217;-31
2023/12/10 03:01:33;;;;;;;27.30;12.70;;;;;;;-0.57;100.00;98301.64;103623;1288;59655;-34
2023/12/10 03:03:59;;;;;;;;;;;;;;;-0.58;100.00;98297.90;103793;1282;59558;-31
2023/12/10 03:06:25;;;;;;;30.00;13.50;;;;;;;-0.62;100.00;98298.90;103682;1285;60787;-31
2023/12/10 03:08:51;;;;;;;25.90;11.80;;;;;;;-0.60;100.00;98299.17;103791;1282;59743;-32
2023/12/10 03:11:17;;;;;;;29.40;12.90;;;;;;;-0.65;100.00;98302.16;103919;1284;59693;-31
2023/12/10 03:13:43;;;;;;;31.90;12.40;;;;;;;-0.67;100.00;98304.59;103672;1285;59666;-33
2023/12/10 03:16:09;;;;;;;27.70;12.20;;;;;;;-0.68;100.00;98306.46;103756;1284;59703;-32
2023/12/10 03:18:34;;;;;;;27.30;12.30;;;;;;;-0.69;100.00;98304.27;103791;1284;59670;-32
2023/12/10 03:21:00;;;;;;;29.60;13.30;;;;;;;-0.71;100.00;98303.95;103789;1283;59754;-35
2023/12/10 03:23:26;;;;;;;32.30;13.10;;;;;;;-0.73;100.00;98306.29;103917;1285;72205;-31
2023/12/10 03:25:52;;;;;;;29.20;13.40;;;;;;;-0.74;100.00;98297.74;103839;1282;59688;-32
2023/12/10 03:28:18;;;;;;;30.70;13.50;;;;;;;-0.76;100.00;98295.52;103842;1284;59755;-31
2023/12/10 03:30:43;;;;;;;31.00;13.50;;;;;;;-0.76;100.00;98296.15;103771;1282;61098;-31
2023/12/10 03:33:09;;;;;;;27.90;12.20;;;;;;;-0.80;100.00;98296.56;103777;1282;59764;-30
2023/12/10 03:35:35;;;;;;;35.20;13.70;;;;;;;-0.83;100.00;98290.91;103841;1285;59698;-32
2023/12/10 03:38:01;;;;;;;26.60;12.40;;;;;;;-0.83;100.00;98290.05;103735;1284;60229;-30
2023/12/10 03:40:27;;;;;;;29.10;13.00;;;;;;;-0.86;100.00;98291.58;103734;1285;59772;-32
2023/12/10 03:42:53;;;;;;;30.40;13.20;;;;;;;-0.84;100.00;98289.58;103742;1284;59698;-31
2023/12/10 03:45:19;;;;;;;26.60;12.40;;;;;;;-0.83;100.00;98291.46;103786;1288;59652;-32
2023/12/10 03:47:46;;;;;;;27.40;12.40;;;;;;;-0.84;100.00;98284.11;103817;1284;59571;-31
2023/12/10 03:50:16;;;;;;;31.20;12.80;;;;;;;-0.80;100.00;98284.48;103820;1284;73584;-31
2023/12/10 03:52:42;;;;;;;26.50;12.90;;;;;;;-0.75;100.00;98279.18;103933;1285;67105;-31
2023/12/10 03:55:08;;;;;;;27.30;12.70;;;;;;;-0.68;100.00;98273.60;103742;1285;59688;-33
2023/12/10 03:57:34;;;;;;;28.40;11.60;;;;;;;-0.66;100.00;98277.83;103828;1283;59820;-34
2023/12/10 04:00:01;;;;;;;23.70;10.90;;;;;;;-0.64;100.00;98275.54;103713;1285;59767;-33
2023/12/10 04:02:27;;;;;;;30.30;12.50;;;;;;;-0.61;100.00;98283.61;103685;1281;59691;-31
2023/12/10 04:04:52;;;;;;;27.10;12.10;;;;;;;-0.60;100.00;98281.64;103758;1285;59801;-31
2023/12/10 04:07:19;;;;;;;27.00;12.00;;;;;;;-0.54;100.00;98284.35;103742;1284;59722;-31
2023/12/10 04:09:45;;;;;;;24.80;11.90;;;;;;;-0.52;100.00;98286.45;103735;1285;59733;-35
2023/12/10 04:12:11;;;;;;;26.00;12.10;;;;;;;-0.48;100.00;98283.88;103895;1284;60229;-32
2023/12/10 04:14:37;;;;;;;;;;;;;;;-0.44;100.00;98281.77;103911;1285;59663;-30
2023/12/10 04:17:03;;;;;;;27.00;11.10;;;;;;;-0.42;100.00;98280.02;103931;1284;59906;-30
2023/12/10 04:19:29;;;;;;;27.20;11.50;;;;;;;-0.41;100.00;98283.73;103686;1285;59755;-30
2023/12/10 04:21:55;;;;;;;;;;;;;;;-0.33;100.00;98292.11;103918;1280;59638;-34
2023/12/10 04:24:21;;;;;;;28.30;12.60;;;;;;;-0.31;100.00;98291.48;103817;1285;59777;-33
2023/12/10 04:26:47;;;;;;;25.90;11.70;;;;;;;-0.25;100.00;98292.80;103850;1282;59657;-32
2023/12/10 04:29:12;;;;;;;22.30;11.30;;;;;;;-0.24;100.00;98286.77;103826;1285;59784;-33
2023/12/10 04:31:38;;;;;;;20.70;11.20;;;;;;;-0.20;100.00;98281.48;103841;1283;73395;-33
2023/12/10 04:34:04;;;;;;;24.80;11.50;;;;;;;-0.13;100.00;98286.77;103859;1282;59803;-33
2023/12/10 04:36:30;;;;;;;26.30;12.20;;;;;;;-0.09;100.00;98289.23;103749;1283;59766;-33
2023/12/10 04:38:55;;;;;;;25.10;11.80;;;;;;;-0.08;100.00;98299.00;103764;1283;59749;-33
2023/12/10 04:41:21;;;;;;;25.50;11.70;;;;;;;-0.04;100.00;98304.94;103754;1285;59676;-34
2023/12/10 04:43:48;;;;;;;25.20;11.90;;;;;;;-0.02;100.00;98307.42;103822;1283;60228;-33
2023/12/10 04:46:16;;;;;;;25.70;12.40;;;;;;;-0.02;100.00;98308.98;103856;1283;59695;-43
2023/12/10 04:48:42;;;;;;;24.70;11.30;;;;;;;0.03;100.00;98307.92;103748;1285;59657;-31
2023/12/10 04:51:10;;;;;;;22.20;11.30;;;;;;;0.07;100.00;98320.27;103614;1285;72506;-30
2023/12/10 04:53:36;;;;;;;26.50;12.00;;;;;;;0.08;100.00;98326.79;103750;1286;59746;-36
2023/12/10 04:56:01;;;;;;;;;;;;;;;0.11;100.00;98326.70;103854;1285;59762;-31
2023/12/10 04:58:27;;;;;;;26.40;11.90;;;;;;;0.08;100.00;98330.67;103699;1285;59680;-31
2023/12/10 05:00:53;;;;;;;25.00;12.20;;;;;;;0.07;100.00;98332.36;103724;1286;59671;-33
2023/12/10 05:03:19;;;;;;;27.20;11.40;;;;;;;0.13;100.00;98334.37;103837;1282;59746;-31
2023/12/10 05:05:45;;;;;;;24.70;11.30;;;;;;;0.13;100.00;98331.09;103975;1285;59781;-32
2023/12/10 05:08:10;;;;;;;;;;;;;;;0.15;100.00;98336.16;103895;1282;59756;-31
2023/12/10 05:10:36;;;;;;;23.80;10.60;;;;;;;0.13;100.00;98336.52;103749;1285;59747;-31
2023/12/10 05:13:02;;;;;;;22.60;11.40;;;;;;;0.20;100.00;98338.21;103883;1281;59704;-33
2023/12/10 05:15:28;;;;;;;23.00;11.10;;;;;;;0.21;100.00;98343.60;103797;1285;59862;-34
2023/12/10 05:17:54;;;;;;;23.10;11.10;;;;;;;0.22;100.00;98345.21;103657;1283;71966;-32
2023/12/10 05:20:20;;;;;;;21.50;10.60;;;;;;;0.22;100.00;98351.28;103754;1285;59713;-33
2023/12/10 05:22:46;;;;;;;19.70;10.20;;;;;;;0.25;100.00;98355.36;103908;1295;59705;-34
2023/12/10 05:25:12;;;;;;;18.70;9.90;;;;;;;0.28;100.00;98352.55;103818;1286;59740;-33
2023/12/10 05:27:38;;;;;;;23.30;10.60;;;;;;;0.29;100.00;98353.70;103832;1284;59679;-33
2023/12/10 05:30:04;;;;;;;19.20;9.70;;;;;;;0.25;100.00;98357.98;103897;1286;59759;-33
2023/12/10 05:32:30;;;;;;;21.00;10.40;;;;;;;0.29;100.00;98360.20;103707;1285;59653;-32
2023/12/10 05:34:55;;;;;;;16.10;8.60;;;;;;;0.32;100.00;98358.30;103763;1287;59770;-33
2023/12/10 05:37:21;;;;;;;16.50;8.90;;;;;;;0.39;100.00;98362.46;103893;1283;59687;-32
2023/12/10 05:39:47;;;;;;;18.30;9.00;;;;;;;0.30;100.00;98359.92;103842;1283;59766;-33
2023/12/10 05:42:13;;;;;;;;;;;;;;;0.26;100.00;98358.47;103847;1285;68422;-33
2023/12/10 05:44:38;;;;;;;19.20;9.20;;;;;;;0.16;100.00;98367.35;103709;1285;59655;-32
2023/12/10 05:47:04;;;;;;;16.00;9.20;;;;;;;0.03;100.00;98371.09;103687;1281;59746;-32
2023/12/10 05:49:30;;;;;;;18.80;9.60;;;;;;;0.04;100.00;98376.45;103717;1283;59772;-30
2023/12/10 05:51:56;;;;;;;17.60;8.20;;;;;;;-0.05;100.00;98376.48;103883;1284;59787;-33
2023/12/10 05:54:21;;;;;;;18.00;9.30;;;;;;;-0.13;100.00;98377.45;103820;1282;59702;-31
2023/12/10 05:56:47;;;;;;;19.90;9.40;;;;;;;-0.11;100.00;98376.08;103751;1285;59696;-33
2023/12/10 05:59:14;;;;;;;18.70;9.40;;;;;;;-0.14;100.00;98376.52;103820;1284;60135;-31
2023/12/10 06:01:40;;;;;;;19.60;9.10;;;;;;;-0.16;100.00;98372.65;103759;1282;59741;-33
2023/12/10 06:04:06;;;;;;;18.00;8.90;;;;;;;-0.21;100.00;98377.28;103728;1285;59652;-34
2023/12/10 06:06:32;;;;;;;15.70;8.60;;;;;;;-0.25;100.00;98369.15;103825;1285;59673;-32
2023/12/10 06:08:58;;;;;;;16.60;9.40;;;;;;;-0.28;100.00;98369.79;103798;1285;60141;-34
2023/12/10 06:11:24;;;;;;;18.30;9.10;;;;;;;-0.25;100.00;98365.35;101657;1283;1002973;-34
2023/12/10 06:13:50;;;;;;;18.40;9.60;;;;;;;-0.30;100.00;98370.79;98070;1282;1015200;-30
2023/12/10 06:16:15;;;;;;;16.50;8.50;;;;;;;-0.34;100.00;98372.77;103800;1285;59708;-32
2023/12/10 06:18:41;;;;;;;17.40;8.80;;;;;;;-0.30;100.00;98374.05;101581;1282;1003128;-34
2023/12/10 06:21:07;;;;;;;17.60;9.30;;;;;;;-0.33;100.00;98374.86;97272;1285;1003825;-33
2023/12/10 06:23:33;;;;;;;18.10;9.10;;;;;;;-0.38;100.00;98375.91;99562;1282;1003371;-34
2023/12/10 06:25:59;;;;;;;19.30;9.00;;;;;;;-0.37;100.00;98387.84;94353;1281;1055422;-34
2023/12/10 06:28:25;;;;;;;18.90;9.00;;;;;;;-0.36;100.00;98388.98;103015;1281;1002652;-33
2023/12/10 06:30:51;;;;;;;;;;;;;;;-0.35;100.00;98387.27;103852;1282;60060;-32
2023/12/10 06:33:17;;;;;;;14.30;7.70;;;;;;;-0.38;100.00;98383.71;103871;1283;59687;-33
2023/12/10 06:35:43;;;;;;;16.00;8.60;;;;;;;-0.36;100.00;98393.20;103574;1282;59746;-32
2023/12/10 06:38:09;;;;;;;18.30;9.40;;;;;;;-0.36;100.00;98397.16;103731;1285;60568;-32
2023/12/10 06:40:35;;;;;;;15.00;8.00;;;;;;;-0.36;100.00;98393.90;103759;1281;60539;-36
2023/12/10 06:43:01;;;;;;;15.00;8.00;;;;;;;-0.31;100.00;98399.38;103864;1285;73157;-32
2023/12/10 06:45:27;;;;;;;15.30;8.40;;;;;;;-0.34;100.00;98393.88;103576;1286;60589;-32
2023/12/10 06:47:52;;;;;;;15.80;9.10;;;;;;;-0.35;100.00;98396.41;104059;1285;60534;-33
2023/12/10 06:50:18;;;;;;;16.60;9.10;;;;;;;-0.34;100.00;98404.21;103824;1283;60534;-32
2023/12/10 06:52:44;;;;;;;16.90;8.50;;;;;;;-0.32;100.00;98406.85;103722;1285;60607;-34
2023/12/10 06:55:10;;;;;;;14.40;8.90;;;;;;;-0.31;100.00;98422.79;103839;1282;60457;-36
2023/12/10 06:57:36;;;;;;;15.60;8.30;;;;;;;-0.28;100.00;98429.65;103862;1283;60558;-33
2023/12/10 07:00:03;;;;;;;14.90;7.80;;;;;;;-0.32;100.00;98435.28;103701;1281;60489;-33
2023/12/10 07:02:28;;;;;;;17.90;8.40;;;;;;;-0.24;100.00;98435.79;103751;1285;60518;-33
2023/12/10 07:04:54;;;;;;;17.90;8.70;;;;;;;-0.21;100.00;98446.34;103727;1284;60527;-32
2023/12/10 07:07:20;;;;;;;15.50;8.20;;;;;;;-0.24;100.00;98451.25;103638;1286;60870;-32
2023/12/10 07:09:46;;;;;;;14.60;7.90;;;;;;;-0.21;100.00;98455.17;103844;1281;74060;-36
2023/12/10 07:12:12;;;;;;;15.80;8.00;;;;;;;-0.20;100.00;98452.32;103680;1282;60476;-33
2023/12/10 07:14:38;;;;;;;16.50;8.40;;;;;;;-0.11;100.00;98456.84;103785;1282;60517;-33
2023/12/10 07:17:04;;;;;;;;;;;;;;;-0.13;100.00;98458.27;103957;1282;60552;-31
2023/12/10 07:19:29;;;;;;;14.50;8.10;;;;;;;-0.09;100.00;98465.91;103843;1281;60469;-32
2023/12/10 07:21:55;;;;;;;16.00;8.40;;;;;;;-0.05;100.00;98463.95;103723;1282;60526;-34
2023/12/10 07:24:21;;;;;;;13.80;7.10;;;;;;;-0.01;100.00;98472.52;103743;1282;60595;-32
2023/12/10 07:26:48;;;;;;;13.30;7.10;;;;;;;-0.04;100.00;98470.30;103886;1282;60491;-34
2023/12/10 07:29:13;;;;;;;16.90;8.00;;;;;;;-0.07;100.00;98475.95;103785;1284;60565;-34
2023/12/10 07:31:39;;;;;;;12.80;7.40;;;;;;;-0.05;100.00;98472.27;103783;1281;60552;-34
2023/12/10 07:34:05;;;;;;;12.50;7.10;;;;;;;-0.03;100.00;98471.99;103669;1284;60594;-33
2023/12/10 07:36:31;;;;;;;13.00;7.00;;;;;;;0.02;100.00;98467.88;103735;1283;74683;-32
2023/12/10 07:38:57;;;;;;;13.10;7.40;;;;;;;-0.00;100.00;98472.48;103633;1286;60562;-33
2023/12/10 07:41:22;;;;;;;14.80;7.80;;;;;;;0.02;100.00;98476.49;103881;1282;60575;-33
2023/12/10 07:43:48;;;;;;;11.00;6.70;;;;;;;0.06;100.00;98474.84;103709;1281;60540;-35
2023/12/10 07:46:14;;;;;;;;;;;;;;;0.06;100.00;98474.52;103833;1282;60504;-32
2023/12/10 07:48:40;;;;;;;12.80;6.90;;;;;;;0.08;100.00;98479.04;103756;1281;60583;-34
2023/12/10 07:51:06;;;;;;;13.70;6.60;;;;;;;0.20;100.00;98486.10;103735;1282;60587;-31
2023/12/10 07:53:32;;;;;;;13.50;7.40;;;;;;;0.25;100.00;98484.39;103743;1282;60537;-32
2023/12/10 07:55:58;;;;;;;11.50;6.80;;;;;;;0.30;100.00;98485.15;103700;1283;60530;-33
2023/12/10 07:58:23;;;;;;;13.50;7.20;;;;;;;0.35;100.00;98489.59;103816;1285;60668;-32
2023/12/10 08:00:49;;;;;;;11.80;6.60;;;;;;;0.40;100.00;98492.55;103738;1282;60408;-34
2023/12/10 08:03:15;;;;;;;10.60;6.30;;;;;;;0.43;100.00;98492.75;103826;1283;60539;-32
2023/12/10 08:05:41;;;;;;;;;;;;;;;0.46;100.00;98484.21;103968;1282;60564;-35
2023/12/10 08:08:07;;;;;;;11.00;6.20;;;;;;;0.48;100.00;98483.86;103764;1282;60543;-34
2023/12/10 08:10:32;;;;;;;11.50;6.20;;;;;;;0.50;100.00;98485.59;103727;1282;60562;-35
2023/12/10 08:12:58;;;;;;;11.70;6.40;;;;;;;0.54;100.00;98496.31;103971;1285;60665;-30
2023/12/10 08:15:24;;;;;;;13.20;6.10;;;;;;;0.55;100.00;98492.95;103740;1284;60552;-31
2023/12/10 08:17:50;;;;;;;12.10;7.00;;;;;;;0.63;100.00;98494.13;103787;1284;60437;-31
2023/12/10 08:20:16;;;;;;;23.10;13.70;;;;;;;0.61;100.00;98495.21;103824;1284;60564;-32
2023/12/10 08:22:42;;;;;;;13.70;8.00;;;;;;;0.63;100.00;98497.27;103619;1285;60528;-31
2023/12/10 08:25:08;;;;;;;11.20;6.00;;;;;;;0.69;100.00;98498.20;103737;1282;60476;-31
2023/12/10 08:27:33;;;;;;;;;;;;;;;0.73;100.00;98496.50;103768;1281;60505;-31
2023/12/10 08:29:59;;;;;;;18.10;9.30;;;;;;;0.68;100.00;98497.64;103743;1282;60524;-33
2023/12/10 08:32:27;;;;;;;22.50;8.80;;;;;;;0.72;100.00;98505.23;103856;1281;60548;-31
2023/12/10 08:34:53;;;;;;;27.00;10.40;;;;;;;0.77;100.00;98507.70;103644;1285;60572;-36
2023/12/10 08:37:18;;;;;;;;;;;;;;;0.81;100.00;98515.68;103773;1282;60578;-33
2023/12/10 08:39:47;;;;;;;24.30;10.20;;;;;;;0.80;100.00;98522.31;103863;1280;60416;-31
2023/12/10 08:42:12;;;;;;;12.90;7.10;;;;;;;0.83;100.00;98521.64;103831;1282;60473;-32
2023/12/10 08:44:38;;;;;;;29.70;10.80;;;;;;;0.83;100.00;98518.00;103864;1281;60924;-33
2023/12/10 08:47:04;;;;;;;18.30;7.50;;;;;;;0.84;100.00;98519.07;103742;1282;60559;-31
2023/12/10 08:49:30;;;;;;;14.10;6.40;;;;;;;0.87;100.00;98521.77;103797;1282;60517;-31
2023/12/10 08:51:56;;;;;;;17.10;7.90;;;;;;;0.88;100.00;98521.50;103935;1281;60578;-30
2023/12/10 08:54:22;;;;;;;12.10;6.40;;;;;;;0.94;100.00;98521.48;103756;1285;60553;-32
2023/12/10 08:56:48;;;;;;;17.70;7.00;;;;;;;0.90;100.00;98523.41;103926;1285;60570;-30
2023/12/10 09:00:47;;;;;;;12.60;6.10;;;;;;;0.91;100.00;98520.89;102620;1292;600362;-33
2023/12/10 09:03:13;;;;;;;11.40;6.00;;;;;;;0.97;100.00;98520.47;102960;1292;59382;-31
2023/12/10 09:05:39;;;;;;;11.50;6.00;;;;;;;0.97;100.00;98523.05;102682;1292;59595;-33
2023/12/10 09:08:06;;;;;;;10.00;5.30;;;;;;;1.01;100.00;98530.94;102936;1291;59321;-33
2023/12/10 09:10:32;;;;;;;10.20;6.00;;;;;;;1.01;100.00;98535.37;102688;1292;59377;-35
2023/12/10 09:12:58;;;;;;;10.70;6.00;;;;;;;1.02;100.00;98539.14;102771;1292;59382;-33
2023/12/10 09:15:24;;;;;;;9.40;5.60;;;;;;;1.05;100.00;98542.02;102968;1293;183573;-31
2023/12/10 09:17:50;;;;;;;;;;;;;;;0.98;100.00;98548.05;103045;1293;59305;-33
2023/12/10 09:20:16;;;;;;;10.60;5.40;;;;;;;1.01;100.00;98550.00;102996;1289;59416;-30
2023/12/10 09:22:42;;;;;;;10.20;5.20;;;;;;;1.03;100.00;98549.23;102893;1289;59367;-31
2023/12/10 09:25:07;;;;;;;11.40;6.00;;;;;;;0.98;100.00;98547.99;102937;1288;59677;-32
2023/12/10 09:27:33;;;;;;;10.90;6.10;;;;;;;0.98;100.00;98544.70;102841;1289;59756;-32
2023/12/10 09:29:59;;;;;;;12.20;6.30;;;;;;;1.00;100.00;98544.09;103174;1294;59717;-30
2023/12/10 09:32:27;;;;;;;15.70;6.60;;;;;;;0.95;100.00;98540.93;103075;1292;59682;-30
2023/12/10 09:34:55;;;;;;;37.30;12.30;;;;;;;0.90;100.00;98545.78;102992;1288;59718;-30
2023/12/10 09:37:21;;;;;;;90.70;21.80;;;;;;;0.89;100.00;98547.25;103203;1288;73250;-32
2023/12/10 09:39:47;;;;;;;16.00;7.10;;;;;;;0.91;100.00;98545.71;102890;1288;59767;-32
2023/12/10 09:42:13;;;;;;;13.80;6.90;;;;;;;0.95;100.00;98543.72;103202;1291;59753;-30
2023/12/10 09:44:39;;;;;;;11.90;6.40;;;;;;;0.91;100.00;98541.14;103223;1288;59714;-34
2023/12/10 09:47:08;;;;;;;;;;;;;;;0.99;100.00;98533.64;103075;1291;59799;-31
2023/12/10 09:49:37;;;;;;;15.70;8.90;;;;;;;0.93;100.00;98531.19;103050;1288;59643;-42
2023/12/10 09:52:05;;;;;;;21.10;12.40;;;;;;;0.98;100.00;98530.09;103025;1286;72646;-30
2023/12/10 09:54:31;;;;;;;13.40;7.10;;;;;;;1.08;100.00;98529.32;103141;1288;68310;-31
2023/12/10 09:56:57;;;;;;;14.40;6.80;;;;;;;1.04;100.00;98532.90;103119;1290;59718;-33
2023/12/10 09:59:23;;;;;;;16.70;7.90;;;;;;;1.05;100.00;98536.91;102953;1292;59794;-35
2023/12/10 10:01:50;;;;;;;25.80;10.70;;;;;;;1.07;100.00;98541.80;102978;1288;59785;-31
2023/12/10 10:04:19;;;;;;;18.50;7.70;;;;;;;1.11;100.00;98539.45;103196;1288;59790;-31
2023/12/10 10:06:45;;;;;;;13.70;6.80;;;;;;;1.17;100.00;98540.04;103059;1287;73532;-32
2023/12/10 10:09:11;;;;;;;20.10;8.50;;;;;;;1.20;100.00;98539.09;102990;1288;59765;-32
2023/12/10 10:11:40;;;;;;;13.50;7.30;;;;;;;1.23;100.00;98546.69;102988;1289;59881;-33
2023/12/10 10:14:07;;;;;;;13.50;6.90;;;;;;;1.23;100.00;98548.83;102982;1288;59631;-33
2023/12/10 10:16:33;;;;;;;21.40;8.70;;;;;;;1.33;100.00;98551.09;103005;1288;59596;-32
2023/12/10 10:18:59;;;;;;;;;;;;;;;1.35;100.00;98545.75;103162;1288;59657;-34
2023/12/10 10:21:25;;;;;;;13.00;7.00;;;;;;;1.33;100.00;98550.55;103101;1287;59749;-30
2023/12/10 10:23:51;;;;;;;54.00;18.60;;;;;;;1.31;100.00;98560.45;102985;1292;59742;-31
2023/12/10 10:26:17;;;;;;;;;;;;;;;1.34;100.00;98553.98;103080;1287;59668;-31
2023/12/10 10:28:45;;;;;;;15.10;7.40;;;;;;;1.41;100.00;98556.09;102962;1288;59771;-31
2023/12/10 10:31:11;;;;;;;11.90;6.20;;;;;;;1.47;100.00;98554.66;103161;1288;59788;-31
2023/12/10 10:33:37;;;;;;;14.20;6.70;;;;;;;1.38;100.00;98552.49;103036;1287;59704;-33
2023/12/10 10:36:03;;;;;;;;;;;;;;;1.36;100.00;98550.77;103102;1288;59917;-32
2023/12/10 10:38:29;;;;;;;11.80;6.20;;;;;;;1.30;100.00;98554.04;102989;1288;59768;-31
2023/12/10 10:40:58;;;;;;;10.80;6.60;;;;;;;1.24;100.00;98557.50;102915;1292;59694;-32
2023/12/10 10:43:25;;;;;;;20.80;9.60;;;;;;;1.16;100.00;98563.40;103063;1287;59744;-33
2023/12/10 10:45:52;;;;;;;14.40;7.60;;;;;;;1.09;100.00;98564.86;103015;1288;59685;-32
2023/12/10 10:48:18;;;;;;;15.00;8.10;;;;;;;1.11;100.00;98574.16;103070;1288;59592;-33
2023/12/10 10:50:44;;;;;;;15.90;8.10;;;;;;;1.05;100.00;98578.29;102970;1288;59724;-31
2023/12/10 10:53:10;;;;;;;14.90;7.50;;;;;;;1.10;100.00;98578.68;102953;1288;59787;-35
2023/12/10 10:55:36;;;;;;;15.30;7.30;;;;;;;1.11;100.00;98582.15;102914;1288;59735;-33
2023/12/10 10:58:22;;;;;;;13.10;6.50;;;;;;;1.03;100.00;98582.95;103094;1290;59798;-33
2023/12/10 11:00:48;;;;;;;12.60;6.30;;;;;;;0.97;100.00;98587.19;103058;1288;59749;-29
2023/12/10 11:03:14;;;;;;;11.20;7.00;;;;;;;0.95;100.00;98593.23;102954;1288;59680;-31
2023/12/10 11:05:40;;;;;;;14.00;7.00;;;;;;;0.89;100.00;98592.30;103036;1288;59688;-32
2023/12/10 11:08:07;;;;;;;11.60;6.50;;;;;;;0.88;100.00;98594.11;103034;1288;59765;-32
2023/12/10 11:10:34;;;;;;;15.20;7.50;;;;;;;0.95;100.00;98587.12;103121;1294;59770;-32
2023/12/10 11:13:00;;;;;;;12.80;7.10;;;;;;;0.98;100.00;98588.26;103010;1288;59671;-38
2023/12/10 11:15:26;;;;;;;;;;;;;;;1.05;100.00;98589.22;103138;1288;59743;-33
2023/12/10 11:18:00;;;;;;;16.80;6.80;;;;;;;1.13;100.00;98587.94;103029;1288;59656;-32
2023/12/10 11:20:39;;;;;;;13.20;6.40;;;;;;;1.15;100.00;98588.36;102926;1289;73429;-31
2023/12/10 11:23:13;;;;;;;12.20;7.20;;;;;;;1.19;100.00;98587.00;103008;1288;68014;-33
2023/12/10 11:25:38;;;;;;;15.90;7.10;;;;;;;1.25;100.00;98588.42;102902;1288;72986;-31
2023/12/10 11:28:12;;;;;;;17.30;8.10;;;;;;;1.30;100.00;98588.97;103096;1288;59789;-32
2023/12/10 11:30:39;;;;;;;13.30;7.30;;;;;;;1.39;100.00;98586.21;102876;1288;59715;-33
2023/12/10 11:33:06;;;;;;;13.30;7.00;;;;;;;1.43;100.00;98583.80;103046;1288;59672;-33
2023/12/10 11:35:32;;;;;;;14.20;7.90;;;;;;;1.48;100.00;98585.33;103073;1288;73251;-32
2023/12/10 11:37:58;;;;;;;23.20;10.90;;;;;;;1.48;100.00;98586.75;103072;1288;59656;-33
2023/12/10 11:40:24;;;;;;;15.30;7.10;;;;;;;1.50;100.00;98583.74;102867;1288;59837;-33
2023/12/10 11:42:50;;;;;;;15.50;8.00;;;;;;;1.52;100.00;98583.05;103136;1288;60246;-33
2023/12/10 11:45:16;;;;;;;;;;;;;;;1.48;100.00;98590.36;102931;1288;59772;-31
2023/12/10 11:47:43;;;;;;;13.80;7.00;;;;;;;1.46;100.00;98596.20;103073;1292;59854;-33
2023/12/10 11:50:10;;;;;;;19.30;8.70;;;;;;;1.45;100.00;98593.73;103026;1292;59721;-31
2023/12/10 11:52:36;;;;;;;25.90;10.90;;;;;;;1.44;100.00;98590.42;103055;1289;59744;-31